Terminal Aerodrome Forecast
Issued by NWS Tuscon, AZ

Home | Current Version | Previous Version | Text Only | Print | Product List | Glossary On
Versions: 1 2 3 4 5 6 7 8 9 10 11
747
FTUS45 KTWC 251122
TAFDUG
TAF
KDUG 251122Z 2512/2612 22014G22KT P6SM BKN200
     FM251600 20022G32KT P6SM BKN180
     FM252000 25027G39KT P6SM SCT070 BKN180
     FM260300 29016G26KT P6SM OVC180
     FM260700 33010KT P6SM BKN250=

USA.gov is the U.S. government's official web portal to all federal, state and local government web resources and services.